sensor_id;sensor_type;location;lat;lon;timestamp;pressure;altitude;pressure_sealevel;temperature;humidity
12879;BME280;20617;49.476;10.986;2023-09-18T00:00:46;97811.72;;;21.30;100.00
12879;BME280;20617;49.476;10.986;2023-09-18T00:02:52;97819.38;;;21.23;100.00
12879;BME280;20617;49.476;10.986;2023-09-18T00:04:57;97814.66;;;21.17;100.00
12879;BME280;20617;49.476;10.986;2023-09-18T00:07:02;97813.97;;;21.15;100.00
12879;BME280;20617;49.476;10.986;2023-09-18T00:09:08;97810.34;;;21.16;100.00
12879;BME280;20617;49.476;10.986;2023-09-18T00:11:16;97820.78;;;21.17;100.00
12879;BME280;20617;49.476;10.986;2023-09-18T00:13:19;97822.59;;;21.17;100.00
12879;BME280;20617;49.476;10.986;2023-09-18T00:15:24;97821.63;;;21.18;100.00
12879;BME280;20617;49.476;10.986;2023-09-18T00:17:32;97813.69;;;21.18;100.00
12879;BME280;20617;49.476;10.986;2023-09-18T00:19:38;97808.53;;;21.16;100.00
12879;BME280;20617;49.476;10.986;2023-09-18T00:21:43;97813.81;;;21.16;100.00
12879;BME280;20617;49.476;10.986;2023-09-18T00:23:49;97806.16;;;21.13;100.00
12879;BME280;20617;49.476;10.986;2023-09-18T00:25:53;97797.97;;;21.07;100.00
12879;BME280;20617;49.476;10.986;2023-09-18T00:27:58;97794.63;;;21.05;100.00
12879;BME280;20617;49.476;10.986;2023-09-18T00:30:06;97795.59;;;21.03;100.00
12879;BME280;20617;49.476;10.986;2023-09-18T00:32:09;97795.72;;;21.02;100.00
12879;BME280;20617;49.476;10.986;2023-09-18T00:34:17;97787.09;;;21.00;100.00
12879;BME280;20617;49.476;10.986;2023-09-18T00:36:22;97775.94;;;20.96;100.00
12879;BME280;20617;49.476;10.986;2023-09-18T00:38:27;97775.41;;;20.93;100.00
12879;BME280;20617;49.476;10.986;2023-09-18T00:40:31;97783.91;;;20.87;100.00
12879;BME280;20617;49.476;10.986;2023-09-18T00:42:36;97780.03;;;20.81;100.00
12879;BME280;20617;49.476;10.986;2023-09-18T00:44:42;97775.56;;;20.82;100.00
12879;BME280;20617;49.476;10.986;2023-09-18T00:46:46;97775.84;;;20.78;100.00
12879;BME280;20617;49.476;10.986;2023-09-18T00:48:53;97778.78;;;20.75;100.00
12879;BME280;20617;49.476;10.986;2023-09-18T00:51:02;97774.31;;;20.76;100.00
12879;BME280;20617;49.476;10.986;2023-09-18T00:53:08;97769.19;;;20.74;100.00
12879;BME280;20617;49.476;10.986;2023-09-18T00:55:14;97770.84;;;20.75;100.00
12879;BME280;20617;49.476;10.986;2023-09-18T00:57:20;97772.50;;;20.76;100.00
12879;BME280;20617;49.476;10.986;2023-09-18T00:59:26;97758.44;;;20.76;100.00
12879;BME280;20617;49.476;10.986;2023-09-18T01:01:30;97753.16;;;20.76;100.00
12879;BME280;20617;49.476;10.986;2023-09-18T01:03:36;97756.91;;;20.73;100.00
12879;BME280;20617;49.476;10.986;2023-09-18T01:05:42;97752.31;;;20.75;100.00
12879;BME280;20617;49.476;10.986;2023-09-18T01:07:49;97743.00;;;20.71;100.00
12879;BME280;20617;49.476;10.986;2023-09-18T01:09:54;97747.44;;;20.71;100.00
12879;BME280;20617;49.476;10.986;2023-09-18T01:12:03;97742.16;;;20.71;100.00
12879;BME280;20617;49.476;10.986;2023-09-18T01:14:16;97742.16;;;20.71;100.00
12879;BME280;20617;49.476;10.986;2023-09-18T01:16:27;97738.66;;;20.70;100.00
12879;BME280;20617;49.476;10.986;2023-09-18T01:18:36;97737.13;;;20.68;100.00
12879;BME280;20617;49.476;10.986;2023-09-18T01:20:43;97744.13;;;20.69;100.00
12879;BME280;20617;49.476;10.986;2023-09-18T01:22:51;97746.88;;;20.67;100.00
12879;BME280;20617;49.476;10.986;2023-09-18T01:24:56;97750.81;;;20.63;100.00
12879;BME280;20617;49.476;10.986;2023-09-18T01:27:02;97742.56;;;20.56;100.00
12879;BME280;20617;49.476;10.986;2023-09-18T01:29:07;97744.09;;;20.49;100.00
12879;BME280;20617;49.476;10.986;2023-09-18T01:31:13;97742.72;;;20.45;100.00
12879;BME280;20617;49.476;10.986;2023-09-18T01:33:20;97737.69;;;20.42;100.00
12879;BME280;20617;49.476;10.986;2023-09-18T01:35:26;97748.56;;;20.39;100.00
12879;BME280;20617;49.476;10.986;2023-09-18T01:37:32;97738.22;;;20.36;100.00
12879;BME280;20617;49.476;10.986;2023-09-18T01:39:42;97746.16;;;20.36;100.00
12879;BME280;20617;49.476;10.986;2023-09-18T01:41:48;97736.72;;;20.33;100.00
12879;BME280;20617;49.476;10.986;2023-09-18T01:43:53;97741.44;;;20.30;100.00
12879;BME280;20617;49.476;10.986;2023-09-18T01:45:58;97747.69;;;20.19;100.00
12879;BME280;20617;49.476;10.986;2023-09-18T01:48:04;97744.19;;;20.19;100.00
12879;BME280;20617;49.476;10.986;2023-09-18T01:50:10;97743.25;;;20.20;100.00
12879;BME280;20617;49.476;10.986;2023-09-18T01:52:16;97736.84;;;20.22;100.00
12879;BME280;20617;49.476;10.986;2023-09-18T01:54:21;97740.16;;;20.24;100.00
12879;BME280;20617;49.476;10.986;2023-09-18T01:56:29;97738.38;;;20.25;100.00
12879;BME280;20617;49.476;10.986;2023-09-18T01:58:34;97731.56;;;20.22;100.00
12879;BME280;20617;49.476;10.986;2023-09-18T02:00:39;97733.22;;;20.23;100.00
12879;BME280;20617;49.476;10.986;2023-09-18T02:02:45;97730.47;;;20.25;100.00
12879;BME280;20617;49.476;10.986;2023-09-18T02:05:10;97732.13;;;20.26;100.00
12879;BME280;20617;49.476;10.986;2023-09-18T02:07:15;97718.75;;;20.27;100.00
12879;BME280;20617;49.476;10.986;2023-09-18T02:09:21;97714.16;;;20.29;100.00
12879;BME280;20617;49.476;10.986;2023-09-18T02:11:28;97702.34;;;20.24;100.00
12879;BME280;20617;49.476;10.986;2023-09-18T02:13:33;97709.31;;;20.25;100.00
12879;BME280;20617;49.476;10.986;2023-09-18T02:15:38;97712.91;;;20.24;100.00
12879;BME280;20617;49.476;10.986;2023-09-18T02:17:45;97717.09;;;20.26;100.00
12879;BME280;20617;49.476;10.986;2023-09-18T02:19:48;97713.47;;;20.27;100.00
12879;BME280;20617;49.476;10.986;2023-09-18T02:21:55;97711.81;;;20.26;100.00
12879;BME280;20617;49.476;10.986;2023-09-18T02:24:00;97708.16;;;20.27;100.00
12879;BME280;20617;49.476;10.986;2023-09-18T02:26:05;97704.03;;;20.25;100.00
12879;BME280;20617;49.476;10.986;2023-09-18T02:28:12;97698.47;;;20.28;100.00
12879;BME280;20617;49.476;10.986;2023-09-18T02:30:19;97692.91;;;20.31;100.00
12879;BME280;20617;49.476;10.986;2023-09-18T02:32:23;97693.03;;;20.29;100.00
12879;BME280;20617;49.476;10.986;2023-09-18T02:34:28;97695.66;;;20.29;100.00
12879;BME280;20617;49.476;10.986;2023-09-18T02:36:34;97691.38;;;20.28;100.00
12879;BME280;20617;49.476;10.986;2023-09-18T02:38:39;97691.38;;;20.28;100.00
12879;BME280;20617;49.476;10.986;2023-09-18T02:40:44;97693.84;;;20.30;100.00
12879;BME280;20617;49.476;10.986;2023-09-18T02:42:49;97691.91;;;20.32;100.00
12879;BME280;20617;49.476;10.986;2023-09-18T02:44:57;97688.44;;;20.31;100.00
12879;BME280;20617;49.476;10.986;2023-09-18T02:47:02;97692.91;;;20.31;100.00
12879;BME280;20617;49.476;10.986;2023-09-18T02:49:07;97697.19;;;20.32;100.00
12879;BME280;20617;49.476;10.986;2023-09-18T02:51:11;97691.38;;;20.28;100.00
12879;BME280;20617;49.476;10.986;2023-09-18T02:53:17;97693.44;;;20.25;100.00
12879;BME280;20617;49.476;10.986;2023-09-18T02:55:23;97690.50;;;20.18;100.00
12879;BME280;20617;49.476;10.986;2023-09-18T02:57:28;97683.13;;;20.12;100.00
12879;BME280;20617;49.476;10.986;2023-09-18T02:59:33;97672.84;;;20.09;100.00
12879;BME280;20617;49.476;10.986;2023-09-18T03:01:41;97679.69;;;20.02;100.00
12879;BME280;20617;49.476;10.986;2023-09-18T03:03:48;97687.00;;;19.98;100.00
12879;BME280;20617;49.476;10.986;2023-09-18T03:05:53;97685.78;;;19.93;100.00
12879;BME280;20617;49.476;10.986;2023-09-18T03:07:58;97680.63;;;19.91;100.00
12879;BME280;20617;49.476;10.986;2023-09-18T03:10:04;97672.56;;;19.93;100.00
12879;BME280;20617;49.476;10.986;2023-09-18T03:12:09;97668.13;;;19.93;100.00
12879;BME280;20617;49.476;10.986;2023-09-18T03:14:14;97664.50;;;19.94;100.00
12879;BME280;20617;49.476;10.986;2023-09-18T03:16:19;97666.03;;;19.97;100.00
12879;BME280;20617;49.476;10.986;2023-09-18T03:18:27;97661.84;;;19.94;100.00
12879;BME280;20617;49.476;10.986;2023-09-18T03:20:32;97657.56;;;19.93;100.00
12879;BME280;20617;49.476;10.986;2023-09-18T03:22:35;97649.47;;;19.95;100.00
12879;BME280;20617;49.476;10.986;2023-09-18T03:24:40;97650.03;;;19.98;100.00
12879;BME280;20617;49.476;10.986;2023-09-18T03:26:44;97636.16;;;19.96;100.00
12879;BME280;20617;49.476;10.986;2023-09-18T03:28:51;97639.75;;;19.95;100.00
12879;BME280;20617;49.476;10.986;2023-09-18T03:30:57;97640.44;;;19.97;100.00
12879;BME280;20617;49.476;10.986;2023-09-18T03:33:03;97640.16;;;20.00;100.00
12879;BME280;20617;49.476;10.986;2023-09-18T03:35:11;97634.59;;;20.03;100.00
12879;BME280;20617;49.476;10.986;2023-09-18T03:37:21;97632.94;;;20.02;100.00
12879;BME280;20617;49.476;10.986;2023-09-18T03:39:29;97630.16;;;20.04;100.00
12879;BME280;20617;49.476;10.986;2023-09-18T03:41:34;97632.66;;;20.05;100.00
12879;BME280;20617;49.476;10.986;2023-09-18T03:43:40;97631.28;;;20.01;100.00
12879;BME280;20617;49.476;10.986;2023-09-18T03:45:45;97625.13;;;20.01;100.00
12879;BME280;20617;49.476;10.986;2023-09-18T03:47:51;97616.38;;;20.00;100.00
12879;BME280;20617;49.476;10.986;2023-09-18T03:49:56;97619.31;;;19.97;100.00
12879;BME280;20617;49.476;10.986;2023-09-18T03:52:04;97617.50;;;19.98;100.00
12879;BME280;20617;49.476;10.986;2023-09-18T03:54:09;97615.28;;;19.93;100.00
12879;BME280;20617;49.476;10.986;2023-09-18T03:56:14;97610.00;;;19.93;100.00
12879;BME280;20617;49.476;10.986;2023-09-18T03:58:19;97613.06;;;19.88;100.00
12879;BME280;20617;49.476;10.986;2023-09-18T04:00:24;97614.16;;;19.86;100.00
12879;BME280;20617;49.476;10.986;2023-09-18T04:02:29;97621.41;;;19.84;100.00
12879;BME280;20617;49.476;10.986;2023-09-18T04:04:32;97631.00;;;19.75;100.00
12879;BME280;20617;49.476;10.986;2023-09-18T04:06:42;97633.75;;;19.74;100.00
12879;BME280;20617;49.476;10.986;2023-09-18T04:08:50;97626.94;;;19.71;100.00
12879;BME280;20617;49.476;10.986;2023-09-18T04:10:56;97622.63;;;19.70;100.00
12879;BME280;20617;49.476;10.986;2023-09-18T04:13:01;97631.09;;;19.64;100.00
12879;BME280;20617;49.476;10.986;2023-09-18T04:15:07;97631.19;;;19.62;100.00
12879;BME280;20617;49.476;10.986;2023-09-18T04:17:12;97630.50;;;19.60;100.00
12879;BME280;20617;49.476;10.986;2023-09-18T04:19:17;97647.00;;;19.43;100.00
12879;BME280;20617;49.476;10.986;2023-09-18T04:21:22;97672.78;;;19.20;100.00
12879;BME280;20617;49.476;10.986;2023-09-18T04:23:27;97700.69;;;18.92;100.00
12879;BME280;20617;49.476;10.986;2023-09-18T04:25:35;97653.94;;;18.94;100.00
12879;BME280;20617;49.476;10.986;2023-09-18T04:27:37;97632.97;;;19.02;100.00
12879;BME280;20617;49.476;10.986;2023-09-18T04:29:42;97633.47;;;19.17;100.00
12879;BME280;20617;49.476;10.986;2023-09-18T04:31:47;97641.53;;;19.25;100.00
12879;BME280;20617;49.476;10.986;2023-09-18T04:33:52;97641.44;;;19.36;100.00
12879;BME280;20617;49.476;10.986;2023-09-18T04:35:57;97622.84;;;19.48;100.00
12879;BME280;20617;49.476;10.986;2023-09-18T04:38:04;97615.19;;;19.54;100.00
12879;BME280;20617;49.476;10.986;2023-09-18T04:40:10;97609.13;;;19.63;100.00
12879;BME280;20617;49.476;10.986;2023-09-18T04:42:18;97603.88;;;19.73;100.00
12879;BME280;20617;49.476;10.986;2023-09-18T04:44:24;97595.25;;;19.81;100.00
12879;BME280;20617;49.476;10.986;2023-09-18T04:46:29;97583.00;;;19.89;100.00
12879;BME280;20617;49.476;10.986;2023-09-18T04:48:37;97578.31;;;19.93;100.00
12879;BME280;20617;49.476;10.986;2023-09-18T04:50:42;97571.34;;;19.92;100.00
12879;BME280;20617;49.476;10.986;2023-09-18T04:52:47;97572.88;;;19.95;100.00
12879;BME280;20617;49.476;10.986;2023-09-18T04:54:54;97581.63;;;19.95;100.00
12879;BME280;20617;49.476;10.986;2023-09-18T04:56:59;97600.53;;;20.00;100.00
12879;BME280;20617;49.476;10.986;2023-09-18T04:59:08;97621.09;;;20.06;100.00
12879;BME280;20617;49.476;10.986;2023-09-18T05:01:15;97652.81;;;19.97;100.00
12879;BME280;20617;49.476;10.986;2023-09-18T05:03:23;97666.69;;;19.70;100.00
12879;BME280;20617;49.476;10.986;2023-09-18T05:05:29;97674.38;;;19.52;100.00
12879;BME280;20617;49.476;10.986;2023-09-18T05:07:34;97680.75;;;19.39;100.00
12879;BME280;20617;49.476;10.986;2023-09-18T05:09:39;97667.38;;;19.31;100.00
12879;BME280;20617;49.476;10.986;2023-09-18T05:11:44;97660.72;;;19.37;100.00
12879;BME280;20617;49.476;10.986;2023-09-18T05:13:51;97657.16;;;19.48;100.00
12879;BME280;20617;49.476;10.986;2023-09-18T05:15:59;97653.44;;;19.60;100.00
12879;BME280;20617;49.476;10.986;2023-09-18T05:18:05;97666.44;;;19.73;100.00
12879;BME280;20617;49.476;10.986;2023-09-18T05:20:12;97667.25;;;19.83;100.00
12879;BME280;20617;49.476;10.986;2023-09-18T05:22:15;97662.41;;;19.88;100.00
12879;BME280;20617;49.476;10.986;2023-09-18T05:24:20;97676.72;;;19.95;100.00
12879;BME280;20617;49.476;10.986;2023-09-18T05:26:29;97673.81;;;19.98;100.00
12879;BME280;20617;49.476;10.986;2023-09-18T05:28:35;97687.31;;;20.05;100.00
12879;BME280;20617;49.476;10.986;2023-09-18T05:30:40;97700.38;;;20.06;100.00
12879;BME280;20617;49.476;10.986;2023-09-18T05:32:46;97693.88;;;20.10;100.00
12879;BME280;20617;49.476;10.986;2023-09-18T05:34:51;97701.63;;;20.12;100.00
12879;BME280;20617;49.476;10.986;2023-09-18T05:36:56;97719.59;;;20.08;100.00
12879;BME280;20617;49.476;10.986;2023-09-18T05:39:01;97713.19;;;20.11;100.00
12879;BME280;20617;49.476;10.986;2023-09-18T05:41:06;97714.84;;;20.12;100.00
12879;BME280;20617;49.476;10.986;2023-09-18T05:43:11;97712.09;;;20.13;100.00
12879;BME280;20617;49.476;10.986;2023-09-18T05:45:16;97704.72;;;20.17;100.00
12879;BME280;20617;49.476;10.986;2023-09-18T05:47:21;97703.72;;;20.18;100.00
12879;BME280;20617;49.476;10.986;2023-09-18T05:49:28;97710.25;;;20.24;100.00
12879;BME280;20617;49.476;10.986;2023-09-18T05:51:34;97690.66;;;20.26;100.00
12879;BME280;20617;49.476;10.986;2023-09-18T05:53:41;97683.28;;;20.30;100.00
12879;BME280;20617;49.476;10.986;2023-09-18T05:55:47;97658.91;;;20.36;100.00
12879;BME280;20617;49.476;10.986;2023-09-18T05:57:52;97652.69;;;20.37;100.00
12879;BME280;20617;49.476;10.986;2023-09-18T05:59:57;97671.19;;;20.37;100.00
12879;BME280;20617;49.476;10.986;2023-09-18T06:02:12;97687.59;;;20.41;100.00
12879;BME280;20617;49.476;10.986;2023-09-18T06:04:18;97670.34;;;20.46;100.00
12879;BME280;20617;49.476;10.986;2023-09-18T06:06:26;97670.50;;;20.54;100.00
12879;BME280;20617;49.476;10.986;2023-09-18T06:08:31;97663.94;;;20.58;100.00
12879;BME280;20617;49.476;10.986;2023-09-18T06:10:36;97668.53;;;20.56;100.00
12879;BME280;20617;49.476;10.986;2023-09-18T06:12:41;97666.75;;;20.57;100.00
12879;BME280;20617;49.476;10.986;2023-09-18T06:14:44;97654.88;;;20.61;100.00
12879;BME280;20617;49.476;10.986;2023-09-18T06:16:49;97655.31;;;20.66;100.00
12879;BME280;20617;49.476;10.986;2023-09-18T06:18:54;97664.91;;;20.67;100.00
12879;BME280;20617;49.476;10.986;2023-09-18T06:20:59;97662.41;;;20.66;100.00
12879;BME280;20617;49.476;10.986;2023-09-18T06:23:07;97656.84;;;20.69;100.00
12879;BME280;20617;49.476;10.986;2023-09-18T06:25:12;97657.22;;;20.74;100.00
12879;BME280;20617;49.476;10.986;2023-09-18T06:27:17;97653.06;;;20.62;100.00
12879;BME280;20617;49.476;10.986;2023-09-18T06:29:23;97655.59;;;20.63;100.00
12879;BME280;20617;49.476;10.986;2023-09-18T06:31:31;97652.50;;;20.68;100.00
12879;BME280;20617;49.476;10.986;2023-09-18T06:33:36;97654.72;;;20.72;100.00
12879;BME280;20617;49.476;10.986;2023-09-18T06:35:41;97662.25;;;20.77;100.00
12879;BME280;20617;49.476;10.986;2023-09-18T06:37:46;97664.31;;;20.73;100.00
12879;BME280;20617;49.476;10.986;2023-09-18T06:39:53;97665.56;;;20.79;100.00
12879;BME280;20617;49.476;10.986;2023-09-18T06:41:58;97665.16;;;20.84;100.00
12879;BME280;20617;49.476;10.986;2023-09-18T06:44:04;97657.03;;;20.95;100.00
12879;BME280;20617;49.476;10.986;2023-09-18T06:46:09;97652.81;;;21.02;100.00
12879;BME280;20617;49.476;10.986;2023-09-18T06:48:14;97654.78;;;21.00;100.00
12879;BME280;20617;49.476;10.986;2023-09-18T06:50:20;97663.66;;;21.09;100.00
12879;BME280;20617;49.476;10.986;2023-09-18T06:52:25;97659.31;;;21.17;100.00
12879;BME280;20617;49.476;10.986;2023-09-18T06:54:30;97650.09;;;21.21;100.00
12879;BME280;20617;49.476;10.986;2023-09-18T06:56:37;97655.09;;;21.24;100.00
12879;BME280;20617;49.476;10.986;2023-09-18T06:58:43;97639.16;;;21.34;100.00
12879;BME280;20617;49.476;10.986;2023-09-18T07:00:49;97635.00;;;21.41;100.00
12879;BME280;20617;49.476;10.986;2023-09-18T07:02:55;97638.19;;;21.45;100.00
12879;BME280;20617;49.476;10.986;2023-09-18T07:05:00;97635.91;;;21.50;100.00
12879;BME280;20617;49.476;10.986;2023-09-18T07:07:06;97638.88;;;21.47;100.00
12879;BME280;20617;49.476;10.986;2023-09-18T07:09:10;97645.59;;;21.41;100.00
12879;BME280;20617;49.476;10.986;2023-09-18T07:11:16;97647.78;;;21.46;100.00
12879;BME280;20617;49.476;10.986;2023-09-18T07:13:23;97651.06;;;21.58;100.00
12879;BME280;20617;49.476;10.986;2023-09-18T07:15:28;97649.63;;;21.63;100.00
12879;BME280;20617;49.476;10.986;2023-09-18T07:17:34;97645.25;;;21.72;100.00
12879;BME280;20617;49.476;10.986;2023-09-18T07:19:39;97642.38;;;21.83;100.00
12879;BME280;20617;49.476;10.986;2023-09-18T07:21:44;97648.16;;;21.97;100.00
12879;BME280;20617;49.476;10.986;2023-09-18T07:23:49;97642.78;;;22.06;100.00
12879;BME280;20617;49.476;10.986;2023-09-18T07:25:54;97646.06;;;22.18;100.00
12879;BME280;20617;49.476;10.986;2023-09-18T07:28:00;97646.66;;;22.30;100.00
12879;BME280;20617;49.476;10.986;2023-09-18T07:30:07;97638.44;;;22.41;100.00
12879;BME280;20617;49.476;10.986;2023-09-18T07:32:13;97621.97;;;22.55;100.00
12879;BME280;20617;49.476;10.986;2023-09-18T07:34:38;97614.91;;;22.64;100.00
12879;BME280;20617;49.476;10.986;2023-09-18T07:36:42;97603.97;;;22.67;100.00
12879;BME280;20617;49.476;10.986;2023-09-18T07:38:48;97605.88;;;22.75;100.00
12879;BME280;20617;49.476;10.986;2023-09-18T07:40:54;97604.69;;;22.77;100.00
12879;BME280;20617;49.476;10.986;2023-09-18T07:42:59;97605.19;;;22.73;100.00
12879;BME280;20617;49.476;10.986;2023-09-18T07:45:07;97611.81;;;22.77;100.00
12879;BME280;20617;49.476;10.986;2023-09-18T07:47:10;97622.66;;;22.83;100.00
12879;BME280;20617;49.476;10.986;2023-09-18T07:49:14;97631.59;;;22.82;100.00
12879;BME280;20617;49.476;10.986;2023-09-18T07:51:19;97623.81;;;22.89;100.00
12879;BME280;20617;49.476;10.986;2023-09-18T07:53:25;97637.53;;;23.02;100.00
12879;BME280;20617;49.476;10.986;2023-09-18T07:55:30;97631.09;;;23.05;100.00
12879;BME280;20617;49.476;10.986;2023-09-18T07:57:36;97641.75;;;23.13;100.00
12879;BME280;20617;49.476;10.986;2023-09-18T07:59:40;97634.84;;;23.28;100.00
12879;BME280;20617;49.476;10.986;2023-09-18T08:01:47;97633.09;;;23.45;100.00
12879;BME280;20617;49.476;10.986;2023-09-18T08:03:52;97634.28;;;23.59;100.00
12879;BME280;20617;49.476;10.986;2023-09-18T08:05:59;97638.00;;;23.75;100.00
12879;BME280;20617;49.476;10.986;2023-09-18T08:08:01;97640.38;;;23.86;100.00
12879;BME280;20617;49.476;10.986;2023-09-18T08:10:08;97637.53;;;23.95;100.00
12879;BME280;20617;49.476;10.986;2023-09-18T08:12:14;97640.38;;;23.94;100.00
12879;BME280;20617;49.476;10.986;2023-09-18T08:14:19;97639.72;;;23.92;100.00
12879;BME280;20617;49.476;10.986;2023-09-18T08:16:24;97632.06;;;24.05;100.00
12879;BME280;20617;49.476;10.986;2023-09-18T08:18:35;97637.91;;;24.25;100.00
12879;BME280;20617;49.476;10.986;2023-09-18T08:20:43;97638.38;;;24.29;100.00
12879;BME280;20617;49.476;10.986;2023-09-18T08:22:49;97628.44;;;24.47;100.00
12879;BME280;20617;49.476;10.986;2023-09-18T08:24:57;97626.44;;;24.57;100.00
12879;BME280;20617;49.476;10.986;2023-09-18T08:27:04;97635.75;;;24.70;100.00
12879;BME280;20617;49.476;10.986;2023-09-18T08:29:09;97639.88;;;24.80;100.00
12879;BME280;20617;49.476;10.986;2023-09-18T08:31:14;97638.69;;;24.83;100.00
12879;BME280;20617;49.476;10.986;2023-09-18T08:33:20;97640.19;;;24.85;100.00
12879;BME280;20617;49.476;10.986;2023-09-18T08:35:28;97647.34;;;24.93;100.00
12879;BME280;20617;49.476;10.986;2023-09-18T08:37:34;97649.66;;;24.96;100.00
12879;BME280;20617;49.476;10.986;2023-09-18T08:39:39;97650.50;;;24.97;100.00
12879;BME280;20617;49.476;10.986;2023-09-18T08:41:45;97653.16;;;24.89;100.00
12879;BME280;20617;49.476;10.986;2023-09-18T08:44:01;97646.88;;;24.81;100.00
12879;BME280;20617;49.476;10.986;2023-09-18T08:46:06;97646.88;;;24.81;100.00
12879;BME280;20617;49.476;10.986;2023-09-18T08:48:12;97646.84;;;24.90;100.00
12879;BME280;20617;49.476;10.986;2023-09-18T08:50:18;97653.00;;;24.90;100.00
12879;BME280;20617;49.476;10.986;2023-09-18T08:52:31;97639.31;;;25.01;100.00
12879;BME280;20617;49.476;10.986;2023-09-18T08:54:36;97636.50;;;25.03;100.00
12879;BME280;20617;49.476;10.986;2023-09-18T08:56:41;97636.63;;;25.18;100.00
12879;BME280;20617;49.476;10.986;2023-09-18T08:58:46;97634.56;;;25.36;100.00
12879;BME280;20617;49.476;10.986;2023-09-18T09:00:52;97630.31;;;25.58;100.00
12879;BME280;20617;49.476;10.986;2023-09-18T09:02:58;97641.75;;;25.67;100.00
12879;BME280;20617;49.476;10.986;2023-09-18T09:05:05;97635.81;;;25.88;100.00
12879;BME280;20617;49.476;10.986;2023-09-18T09:07:07;97622.72;;;26.01;100.00
12879;BME280;20617;49.476;10.986;2023-09-18T09:09:15;97620.22;;;26.23;100.00
12879;BME280;20617;49.476;10.986;2023-09-18T09:11:21;97616.13;;;26.35;100.00
12879;BME280;20617;49.476;10.986;2023-09-18T09:13:26;97618.06;;;26.41;100.00
12879;BME280;20617;49.476;10.986;2023-09-18T09:15:43;97624.94;;;26.35;100.00
12879;BME280;20617;49.476;10.986;2023-09-18T09:17:51;97626.75;;;26.20;100.00
12879;BME280;20617;49.476;10.986;2023-09-18T09:20:08;97620.31;;;26.29;100.00
12879;BME280;20617;49.476;10.986;2023-09-18T09:22:19;97600.69;;;26.45;100.00
12879;BME280;20617;49.476;10.986;2023-09-18T09:24:41;97594.47;;;26.53;100.00
12879;BME280;20617;49.476;10.986;2023-09-18T09:26:57;97590.06;;;26.60;100.00
12879;BME280;20617;49.476;10.986;2023-09-18T09:29:15;97589.66;;;26.48;100.00
12879;BME280;20617;49.476;10.986;2023-09-18T09:31:24;97585.81;;;26.51;100.00
12879;BME280;20617;49.476;10.986;2023-09-18T09:33:31;97588.00;;;26.47;100.00
12879;BME280;20617;49.476;10.986;2023-09-18T09:35:38;97584.44;;;26.55;100.00
12879;BME280;20617;49.476;10.986;2023-09-18T09:37:43;97583.19;;;26.42;100.00
12879;BME280;20617;49.476;10.986;2023-09-18T09:39:50;97585.47;;;26.54;100.00
12879;BME280;20617;49.476;10.986;2023-09-18T09:41:55;97584.81;;;26.52;100.00
12879;BME280;20617;49.476;10.986;2023-09-18T09:44:07;97583.38;;;26.41;100.00
12879;BME280;20617;49.476;10.986;2023-09-18T09:46:15;97588.41;;;26.21;100.00
12879;BME280;20617;49.476;10.986;2023-09-18T09:48:24;97602.22;;;26.02;100.00
12879;BME280;20617;49.476;10.986;2023-09-18T09:50:29;97600.03;;;25.82;100.00
12879;BME280;20617;49.476;10.986;2023-09-18T09:52:33;97609.00;;;25.89;100.00
12879;BME280;20617;49.476;10.986;2023-09-18T09:54:39;97615.16;;;25.82;100.00
12879;BME280;20617;49.476;10.986;2023-09-18T09:56:49;97618.41;;;25.69;100.00
12879;BME280;20617;49.476;10.986;2023-09-18T09:59:02;97613.25;;;25.67;100.00
12879;BME280;20617;49.476;10.986;2023-09-18T10:01:12;97616.56;;;25.69;100.00
12879;BME280;20617;49.476;10.986;2023-09-18T10:03:20;97613.19;;;25.75;100.00
12879;BME280;20617;49.476;10.986;2023-09-18T10:05:31;97616.34;;;25.79;100.00
12879;BME280;20617;49.476;10.986;2023-09-18T10:07:35;97619.06;;;25.71;100.00
12879;BME280;20617;49.476;10.986;2023-09-18T10:09:42;97625.34;;;25.86;100.00
12879;BME280;20617;49.476;10.986;2023-09-18T10:11:52;97630.03;;;25.76;100.00
12879;BME280;20617;49.476;10.986;2023-09-18T10:14:01;97622.84;;;25.77;100.00
12879;BME280;20617;49.476;10.986;2023-09-18T10:16:09;97631.66;;;25.85;100.00
12879;BME280;20617;49.476;10.986;2023-09-18T10:18:26;97625.25;;;25.94;100.00
12879;BME280;20617;49.476;10.986;2023-09-18T10:20:32;97628.44;;;25.98;100.00
12879;BME280;20617;49.476;10.986;2023-09-18T10:22:38;97622.84;;;26.08;100.00
12879;BME280;20617;49.476;10.986;2023-09-18T10:24:46;97625.75;;;26.21;100.00
12879;BME280;20617;49.476;10.986;2023-09-18T10:26:57;97634.94;;;26.41;100.00
12879;BME280;20617;49.476;10.986;2023-09-18T10:29:07;97636.56;;;26.42;100.00
12879;BME280;20617;49.476;10.986;2023-09-18T10:31:15;97636.38;;;26.44;100.00
12879;BME280;20617;49.476;10.986;2023-09-18T10:33:21;97646.19;;;26.52;100.00
12879;BME280;20617;49.476;10.986;2023-09-18T10:35:24;97640.94;;;26.58;100.00
12879;BME280;20617;49.476;10.986;2023-09-18T10:37:30;97644.28;;;26.60;100.00
12879;BME280;20617;49.476;10.986;2023-09-18T10:39:38;97639.59;;;26.62;100.00
12879;BME280;20617;49.476;10.986;2023-09-18T10:41:47;97649.00;;;26.73;100.00
12879;BME280;20617;49.476;10.986;2023-09-18T10:43:56;97645.34;;;26.89;100.00
12879;BME280;20617;49.476;10.986;2023-09-18T10:46:03;97658.59;;;26.82;100.00
12879;BME280;20617;49.476;10.986;2023-09-18T10:48:12;97660.97;;;26.62;100.00
12879;BME280;20617;49.476;10.986;2023-09-18T10:50:23;97661.69;;;26.56;100.00
12879;BME280;20617;49.476;10.986;2023-09-18T10:52:31;97663.69;;;26.54;100.00